WUP902 KMSP-KCLE
Flight info
| Callsign | WUP902 |
|---|---|
| Flight time | 1h 22m |
| Altitude | 45000 |
| Route | COULT7 DLL J34 BAE HASTE BRWNZ4 |
| Aircraft | C750/M-SBDE3FGHRWXY/S |
Departure
| Time | 2026-05-04 23:01 |
|---|---|
| Airport | Minneapolis–Saint Paul International Airport / Wold–Chamberlain Field (KMSP) |
Arrival
| Time | 2026-05-05 00:24 |
|---|---|
| Airport | Cleveland Hopkins International Airport (KCLE) |
| Time | Latitude | Longitude | Altitude | Speed | Heading |
|---|---|---|---|---|---|
| 2026-05-04 22:30 | 44.87743 | -93.21994 | 831 ft | 0 kts | 90° |
| 2026-05-04 22:51 | 44.87743 | -93.21986 | 833 ft | 2 kts | 90° |
| 2026-05-04 22:52 | 44.87743 | -93.21948 | 833 ft | 5 kts | 91° |
| 2026-05-04 22:52 | 44.87742 | -93.21890 | 833 ft | 6 kts | 90° |
| 2026-05-04 22:52 | 44.87742 | -93.21828 | 833 ft | 6 kts | 90° |
| 2026-05-04 22:52 | 44.87742 | -93.21769 | 828 ft | 6 kts | 89° |
| 2026-05-04 22:53 | 44.87760 | -93.21721 | 828 ft | 5 kts | 50° |
| 2026-05-04 22:53 | 44.87782 | -93.21683 | 830 ft | 5 kts | 45° |
| 2026-05-04 22:53 | 44.87804 | -93.21652 | 832 ft | 4 kts | 45° |
| 2026-05-04 22:53 | 44.87824 | -93.21623 | 831 ft | 4 kts | 48° |
| 2026-05-04 22:54 | 44.87846 | -93.21569 | 832 ft | 8 kts | 86° |
| 2026-05-04 22:54 | 44.87821 | -93.21495 | 831 ft | 8 kts | 122° |
| 2026-05-04 22:54 | 44.87787 | -93.21417 | 831 ft | 11 kts | 121° |
| 2026-05-04 22:54 | 44.87742 | -93.21313 | 828 ft | 13 kts | 122° |
| 2026-05-04 22:55 | 44.87695 | -93.21206 | 831 ft | 12 kts | 121° |
| 2026-05-04 22:55 | 44.87651 | -93.21104 | 829 ft | 12 kts | 121° |
| 2026-05-04 22:55 | 44.87607 | -93.21002 | 831 ft | 12 kts | 121° |
| 2026-05-04 22:55 | 44.87565 | -93.20905 | 828 ft | 11 kts | 121° |
| 2026-05-04 22:56 | 44.87524 | -93.20811 | 830 ft | 11 kts | 122° |
| 2026-05-04 22:56 | 44.87477 | -93.20723 | 830 ft | 11 kts | 136° |
| 2026-05-04 22:56 | 44.87419 | -93.20662 | 828 ft | 10 kts | 144° |
| 2026-05-04 22:56 | 44.87370 | -93.20599 | 831 ft | 10 kts | 129° |
| 2026-05-04 22:57 | 44.87334 | -93.20519 | 828 ft | 10 kts | 121° |
| 2026-05-04 22:57 | 44.87300 | -93.20440 | 831 ft | 9 kts | 121° |
| 2026-05-04 22:57 | 44.87267 | -93.20365 | 828 ft | 9 kts | 122° |
| 2026-05-04 22:57 | 44.87239 | -93.20292 | 829 ft | 8 kts | 105° |
| 2026-05-04 22:58 | 44.87259 | -93.20223 | 830 ft | 8 kts | 34° |
| 2026-05-04 22:58 | 44.87278 | -93.20207 | 829 ft | 0 kts | 32° |
| 2026-05-04 23:00 | 44.87288 | -93.20197 | 829 ft | 5 kts | 32° |
| 2026-05-04 23:00 | 44.87330 | -93.20163 | 827 ft | 8 kts | 26° |
| 2026-05-04 23:00 | 44.87375 | -93.20178 | 827 ft | 6 kts | 305° |
| 2026-05-04 23:00 | 44.87382 | -93.20193 | 827 ft | 0 kts | 302° |
| 2026-05-04 23:01 | 44.87387 | -93.20205 | 827 ft | 6 kts | 302° |
| 2026-05-04 23:01 | 44.87520 | -93.20511 | 826 ft | 84 kts | 301° |
| 2026-05-04 23:01 | 44.87929 | -93.21461 | 1001 ft | 125 kts | 302° |
| 2026-05-04 23:01 | 44.88383 | -93.22553 | 1551 ft | 133 kts | 300° |
| 2026-05-04 23:02 | 44.88891 | -93.23701 | 2110 ft | 142 kts | 301° |
| 2026-05-04 23:02 | 44.89464 | -93.24960 | 2519 ft | 164 kts | 302° |
| 2026-05-04 23:02 | 44.90095 | -93.26371 | 3080 ft | 175 kts | 298° |
| 2026-05-04 23:02 | 44.90391 | -93.28126 | 3641 ft | 198 kts | 270° |
| 2026-05-04 23:03 | 44.89942 | -93.30132 | 3882 ft | 237 kts | 241° |
| 2026-05-04 23:03 | 44.88746 | -93.31809 | 3814 ft | 248 kts | 222° |
| 2026-05-04 23:03 | 44.87333 | -93.33313 | 3742 ft | 260 kts | 219° |
| 2026-05-04 23:03 | 44.85861 | -93.34833 | 3577 ft | 263 kts | 219° |
| 2026-05-04 23:04 | 44.84329 | -93.36401 | 4264 ft | 267 kts | 220° |
| 2026-05-04 23:04 | 44.82890 | -93.37901 | 5652 ft | 255 kts | 220° |
| 2026-05-04 23:04 | 44.81372 | -93.39327 | 6188 ft | 277 kts | 208° |
| 2026-05-04 23:04 | 44.79425 | -93.39566 | 6935 ft | 289 kts | 171° |
| 2026-05-04 23:05 | 44.77656 | -93.38194 | 7841 ft | 298 kts | 136° |
| 2026-05-04 23:05 | 44.76654 | -93.35685 | 8718 ft | 303 kts | 103° |
| 2026-05-04 23:05 | 44.76607 | -93.32728 | 9599 ft | 302 kts | 79° |
| 2026-05-04 23:05 | 44.76942 | -93.29781 | 10309 ft | 309 kts | 78° |
| 2026-05-04 23:06 | 44.77240 | -93.26674 | 10581 ft | 332 kts | 79° |
| 2026-05-04 23:06 | 44.77536 | -93.23361 | 10662 ft | 357 kts | 80° |
| 2026-05-04 23:06 | 44.77836 | -93.19768 | 10863 ft | 374 kts | 81° |
| 2026-05-04 23:06 | 44.78114 | -93.16131 | 11576 ft | 374 kts | 81° |
| 2026-05-04 23:07 | 44.78370 | -93.12457 | 12120 ft | 379 kts | 82° |
| 2026-05-04 23:07 | 44.78607 | -93.08732 | 12696 ft | 384 kts | 82° |
| 2026-05-04 23:07 | 44.78820 | -93.05020 | 13280 ft | 388 kts | 83° |
| 2026-05-04 23:07 | 44.79017 | -93.01192 | 13801 ft | 392 kts | 83° |
| 2026-05-04 23:08 | 44.79192 | -92.97350 | 14353 ft | 394 kts | 84° |
| 2026-05-04 23:08 | 44.79125 | -92.93470 | 14778 ft | 402 kts | 95° |
| 2026-05-04 23:08 | 44.78298 | -92.89691 | 15262 ft | 407 kts | 113° |
| 2026-05-04 23:08 | 44.76961 | -92.86159 | 15798 ft | 409 kts | 120° |
| 2026-05-04 23:09 | 44.75533 | -92.82733 | 16286 ft | 412 kts | 120° |
| 2026-05-04 23:09 | 44.74243 | -92.79103 | 16796 ft | 415 kts | 113° |
| 2026-05-04 23:09 | 44.73161 | -92.75315 | 17348 ft | 418 kts | 110° |
| 2026-05-04 23:09 | 44.72067 | -92.71498 | 17855 ft | 423 kts | 112° |
| 2026-05-04 23:10 | 44.70816 | -92.67731 | 18377 ft | 426 kts | 115° |
| 2026-05-04 23:10 | 44.69532 | -92.63973 | 18918 ft | 429 kts | 114° |
| 2026-05-04 23:10 | 44.68327 | -92.60157 | 19437 ft | 432 kts | 112° |
| 2026-05-04 23:10 | 44.67131 | -92.56257 | 19978 ft | 436 kts | 112° |
| 2026-05-04 23:11 | 44.65878 | -92.52365 | 20517 ft | 439 kts | 113° |
| 2026-05-04 23:11 | 44.64584 | -92.48449 | 21039 ft | 442 kts | 113° |
| 2026-05-04 23:11 | 44.63305 | -92.44489 | 21546 ft | 446 kts | 112° |
| 2026-05-04 23:11 | 44.62048 | -92.40530 | 22045 ft | 450 kts | 112° |
| 2026-05-04 23:12 | 44.60754 | -92.36507 | 22554 ft | 453 kts | 113° |
| 2026-05-04 23:12 | 44.59432 | -92.32459 | 23038 ft | 457 kts | 113° |
| 2026-05-04 23:12 | 44.58101 | -92.28371 | 23490 ft | 460 kts | 113° |
| 2026-05-04 23:12 | 44.56770 | -92.24250 | 23922 ft | 463 kts | 112° |
| 2026-05-04 23:13 | 44.55322 | -92.20265 | 24279 ft | 467 kts | 120° |
| 2026-05-04 23:13 | 44.53431 | -92.16522 | 24716 ft | 469 kts | 126° |
| 2026-05-04 23:13 | 44.51495 | -92.12820 | 25146 ft | 471 kts | 125° |
| 2026-05-04 23:13 | 44.49572 | -92.09074 | 25556 ft | 474 kts | 125° |
| 2026-05-04 23:14 | 44.47665 | -92.05365 | 25962 ft | 477 kts | 125° |
| 2026-05-04 23:14 | 44.45691 | -92.01578 | 26393 ft | 479 kts | 126° |
| 2026-05-04 23:14 | 44.43733 | -91.97836 | 26791 ft | 482 kts | 126° |
| 2026-05-04 23:14 | 44.41747 | -91.94015 | 27209 ft | 485 kts | 125° |
| 2026-05-04 23:15 | 44.39751 | -91.90169 | 27629 ft | 488 kts | 125° |
| 2026-05-04 23:15 | 44.38422 | -91.87620 | 27902 ft | 490 kts | 126° |
| 2026-05-04 23:15 | 44.36003 | -91.82248 | 28375 ft | 493 kts | 116° |
| 2026-05-04 23:15 | 44.34418 | -91.77983 | 28830 ft | 495 kts | 116° |
| 2026-05-04 23:16 | 44.33344 | -91.75158 | 29110 ft | 497 kts | 117° |
| 2026-05-04 23:16 | 44.31692 | -91.70881 | 29510 ft | 500 kts | 117° |
| 2026-05-04 23:16 | 44.29514 | -91.65171 | 29953 ft | 505 kts | 117° |
| 2026-05-04 23:16 | 44.28406 | -91.62237 | 30158 ft | 507 kts | 117° |
| 2026-05-04 23:17 | 44.26745 | -91.57862 | 30474 ft | 510 kts | 117° |
| 2026-05-04 23:17 | 44.25061 | -91.53484 | 30894 ft | 510 kts | 117° |
| 2026-05-04 23:17 | 44.23408 | -91.49190 | 31371 ft | 510 kts | 117° |
| 2026-05-04 23:17 | 44.21735 | -91.44817 | 31785 ft | 511 kts | 117° |
| 2026-05-04 23:18 | 44.20057 | -91.40432 | 32244 ft | 511 kts | 118° |
| 2026-05-04 23:18 | 44.18375 | -91.36068 | 32734 ft | 511 kts | 118° |
| 2026-05-04 23:18 | 44.16686 | -91.31699 | 33200 ft | 511 kts | 118° |
| 2026-05-04 23:18 | 44.15000 | -91.27332 | 33679 ft | 511 kts | 118° |
| 2026-05-04 23:19 | 44.13319 | -91.22975 | 34109 ft | 511 kts | 118° |
| 2026-05-04 23:19 | 44.11653 | -91.18673 | 34542 ft | 510 kts | 118° |
| 2026-05-04 23:19 | 44.09954 | -91.14298 | 34976 ft | 510 kts | 118° |
| 2026-05-04 23:19 | 44.08266 | -91.09956 | 35403 ft | 510 kts | 118° |
| 2026-05-04 23:20 | 44.06593 | -91.05651 | 35842 ft | 510 kts | 118° |
| 2026-05-04 23:20 | 44.04900 | -91.01304 | 36297 ft | 510 kts | 118° |
| 2026-05-04 23:20 | 44.03208 | -90.96971 | 36749 ft | 510 kts | 119° |
| 2026-05-04 23:20 | 44.01515 | -90.92641 | 37200 ft | 510 kts | 119° |
| 2026-05-04 23:21 | 43.99815 | -90.88298 | 37669 ft | 510 kts | 119° |
| 2026-05-04 23:21 | 43.98136 | -90.84014 | 38136 ft | 510 kts | 119° |
| 2026-05-04 23:21 | 43.96436 | -90.79686 | 38533 ft | 509 kts | 119° |
| 2026-05-04 23:21 | 43.94733 | -90.75356 | 38923 ft | 509 kts | 119° |
| 2026-05-04 23:22 | 43.93033 | -90.71041 | 39328 ft | 508 kts | 119° |
| 2026-05-04 23:22 | 43.91355 | -90.66787 | 39741 ft | 507 kts | 119° |
| 2026-05-04 23:22 | 43.89659 | -90.62493 | 40156 ft | 506 kts | 119° |
| 2026-05-04 23:22 | 43.87960 | -90.58200 | 40571 ft | 506 kts | 119° |
| 2026-05-04 23:23 | 43.86259 | -90.53908 | 40989 ft | 505 kts | 120° |
| 2026-05-04 23:23 | 43.84586 | -90.49693 | 41399 ft | 505 kts | 120° |
| 2026-05-04 23:23 | 43.82891 | -90.45426 | 41814 ft | 504 kts | 120° |
| 2026-05-04 23:23 | 43.81196 | -90.41169 | 42213 ft | 503 kts | 120° |
| 2026-05-04 23:24 | 43.79501 | -90.36918 | 42607 ft | 503 kts | 120° |
| 2026-05-04 23:24 | 43.77809 | -90.32678 | 43010 ft | 502 kts | 120° |
| 2026-05-04 23:24 | 43.76139 | -90.28502 | 43397 ft | 501 kts | 120° |
| 2026-05-04 23:24 | 43.74446 | -90.24275 | 43787 ft | 500 kts | 120° |
| 2026-05-04 23:25 | 43.72755 | -90.20058 | 44170 ft | 500 kts | 120° |
| 2026-05-04 23:25 | 43.71062 | -90.15842 | 44505 ft | 499 kts | 120° |
| 2026-05-04 23:25 | 43.67656 | -90.07385 | 44553 ft | 512 kts | 120° |
| 2026-05-04 23:26 | 43.64163 | -89.98730 | 44566 ft | 524 kts | 121° |
| 2026-05-04 23:26 | 43.60560 | -89.89835 | 44587 ft | 535 kts | 121° |
| 2026-05-04 23:27 | 43.56908 | -89.80844 | 44590 ft | 542 kts | 121° |
| 2026-05-04 23:27 | 43.53609 | -89.71461 | 44585 ft | 544 kts | 113° |
| 2026-05-04 23:28 | 43.50944 | -89.61692 | 44583 ft | 545 kts | 112° |
| 2026-05-04 23:28 | 43.48091 | -89.52046 | 44569 ft | 545 kts | 113° |
| 2026-05-04 23:29 | 43.45335 | -89.42308 | 44555 ft | 544 kts | 112° |
| 2026-05-04 23:29 | 43.42507 | -89.32628 | 44528 ft | 542 kts | 114° |
| 2026-05-04 23:30 | 43.39729 | -89.23021 | 44522 ft | 542 kts | 113° |
| 2026-05-04 23:30 | 43.36930 | -89.13431 | 44517 ft | 541 kts | 114° |
| 2026-05-04 23:31 | 43.34112 | -89.03804 | 44511 ft | 542 kts | 113° |
| 2026-05-04 23:31 | 43.31308 | -88.94250 | 44504 ft | 541 kts | 114° |
| 2026-05-04 23:32 | 43.28472 | -88.84643 | 44507 ft | 543 kts | 114° |
| 2026-05-04 23:32 | 43.25633 | -88.75040 | 44508 ft | 543 kts | 114° |
| 2026-05-04 23:33 | 43.22777 | -88.65436 | 44507 ft | 543 kts | 114° |
| 2026-05-04 23:33 | 43.19938 | -88.55906 | 44503 ft | 543 kts | 114° |
| 2026-05-04 23:34 | 43.17069 | -88.46325 | 44515 ft | 543 kts | 114° |
| 2026-05-04 23:34 | 43.14210 | -88.36806 | 44523 ft | 543 kts | 114° |
| 2026-05-04 23:35 | 43.11520 | -88.27111 | 44514 ft | 545 kts | 107° |
| 2026-05-04 23:35 | 43.10179 | -88.16874 | 44536 ft | 547 kts | 98° |
| 2026-05-04 23:36 | 43.08895 | -88.06662 | 44532 ft | 546 kts | 103° |
| 2026-05-04 23:36 | 43.07493 | -87.96417 | 44528 ft | 547 kts | 100° |
| 2026-05-04 23:37 | 43.06197 | -87.86151 | 44519 ft | 547 kts | 102° |
| 2026-05-04 23:37 | 43.04786 | -87.75918 | 44516 ft | 547 kts | 101° |
| 2026-05-04 23:38 | 43.03461 | -87.65717 | 44521 ft | 547 kts | 101° |
| 2026-05-04 23:38 | 43.02058 | -87.55529 | 44527 ft | 547 kts | 101° |
| 2026-05-04 23:39 | 43.00688 | -87.45286 | 44529 ft | 547 kts | 101° |
| 2026-05-04 23:39 | 42.99273 | -87.35033 | 44538 ft | 548 kts | 101° |
| 2026-05-04 23:40 | 42.97880 | -87.24855 | 44546 ft | 547 kts | 101° |
| 2026-05-04 23:40 | 42.96456 | -87.14618 | 44557 ft | 547 kts | 102° |
| 2026-05-04 23:41 | 42.95039 | -87.04446 | 44559 ft | 547 kts | 102° |
| 2026-05-04 23:41 | 42.93601 | -86.94226 | 44561 ft | 548 kts | 102° |
| 2026-05-04 23:42 | 42.92158 | -86.84017 | 44562 ft | 548 kts | 102° |
| 2026-05-04 23:42 | 42.90712 | -86.73866 | 44569 ft | 548 kts | 102° |
| 2026-05-04 23:43 | 42.89245 | -86.63636 | 44570 ft | 548 kts | 102° |
| 2026-05-04 23:43 | 42.87778 | -86.53474 | 44568 ft | 548 kts | 102° |
| 2026-05-04 23:44 | 42.86297 | -86.43278 | 44577 ft | 547 kts | 102° |
| 2026-05-04 23:44 | 42.84808 | -86.33094 | 44574 ft | 547 kts | 102° |
| 2026-05-04 23:45 | 42.83311 | -86.22925 | 44571 ft | 547 kts | 102° |
| 2026-05-04 23:45 | 42.81814 | -86.12822 | 44571 ft | 546 kts | 102° |
| 2026-05-04 23:46 | 42.80307 | -86.02719 | 44572 ft | 546 kts | 102° |
| 2026-05-04 23:46 | 42.78786 | -85.92582 | 44570 ft | 545 kts | 102° |
| 2026-05-04 23:47 | 42.77254 | -85.82439 | 44578 ft | 545 kts | 102° |
| 2026-05-04 23:47 | 42.75728 | -85.72398 | 44575 ft | 544 kts | 102° |
| 2026-05-04 23:48 | 42.74192 | -85.62354 | 44581 ft | 544 kts | 103° |
| 2026-05-04 23:48 | 42.72637 | -85.52248 | 44584 ft | 544 kts | 103° |
| 2026-05-04 23:49 | 42.71083 | -85.42211 | 44576 ft | 544 kts | 103° |
| 2026-05-04 23:49 | 42.69512 | -85.32127 | 44583 ft | 544 kts | 103° |
| 2026-05-04 23:50 | 42.67932 | -85.22044 | 44584 ft | 545 kts | 103° |
| 2026-05-04 23:50 | 42.65839 | -85.12220 | 44579 ft | 542 kts | 114° |
| 2026-05-04 23:51 | 42.62813 | -85.02809 | 44590 ft | 543 kts | 115° |
| 2026-05-04 23:51 | 42.60028 | -84.93294 | 44586 ft | 544 kts | 113° |
| 2026-05-04 23:52 | 42.58592 | -84.88586 | 44473 ft | 533 kts | 115° |
| 2026-05-04 23:52 | 42.57140 | -84.84001 | 43810 ft | 522 kts | 115° |
| 2026-05-04 23:52 | 42.55769 | -84.79562 | 43272 ft | 510 kts | 114° |
| 2026-05-04 23:52 | 42.54440 | -84.75169 | 42733 ft | 497 kts | 116° |
| 2026-05-04 23:53 | 42.52955 | -84.70993 | 42219 ft | 488 kts | 119° |
| 2026-05-04 23:53 | 42.51400 | -84.66926 | 41710 ft | 485 kts | 120° |
| 2026-05-04 23:53 | 42.49839 | -84.62834 | 41198 ft | 488 kts | 120° |
| 2026-05-04 23:53 | 42.48320 | -84.58694 | 40689 ft | 491 kts | 119° |
| 2026-05-04 23:54 | 42.46820 | -84.54587 | 40172 ft | 492 kts | 119° |
| 2026-05-04 23:54 | 42.45270 | -84.50455 | 39640 ft | 492 kts | 120° |
| 2026-05-04 23:54 | 42.43706 | -84.46326 | 39119 ft | 491 kts | 120° |
| 2026-05-04 23:54 | 42.42157 | -84.42187 | 38592 ft | 491 kts | 120° |
| 2026-05-04 23:55 | 42.40620 | -84.38048 | 38044 ft | 491 kts | 120° |
| 2026-05-04 23:55 | 42.39073 | -84.33923 | 37504 ft | 490 kts | 120° |
| 2026-05-04 23:55 | 42.35984 | -84.25745 | 36459 ft | 494 kts | 120° |
| 2026-05-04 23:56 | 42.34422 | -84.21587 | 35928 ft | 495 kts | 120° |
| 2026-05-04 23:56 | 42.32853 | -84.17423 | 35397 ft | 496 kts | 120° |
| 2026-05-04 23:56 | 42.31279 | -84.13269 | 34863 ft | 497 kts | 120° |
| 2026-05-04 23:56 | 42.29700 | -84.09106 | 34341 ft | 498 kts | 120° |
| 2026-05-04 23:57 | 42.28122 | -84.04939 | 33812 ft | 499 kts | 120° |
| 2026-05-04 23:57 | 42.26558 | -84.00817 | 33258 ft | 499 kts | 120° |
| 2026-05-04 23:57 | 42.24968 | -83.96639 | 32721 ft | 500 kts | 120° |
| 2026-05-04 23:57 | 42.23369 | -83.92442 | 32187 ft | 501 kts | 120° |
| 2026-05-04 23:58 | 42.21769 | -83.88246 | 31652 ft | 502 kts | 120° |
| 2026-05-04 23:58 | 42.20163 | -83.84042 | 31113 ft | 504 kts | 120° |
| 2026-05-04 23:58 | 42.18574 | -83.79889 | 30577 ft | 505 kts | 120° |
| 2026-05-04 23:58 | 42.18185 | -83.78873 | 30444 ft | 505 kts | 120° |
| 2026-05-04 23:59 | 42.17541 | -83.77191 | 30234 ft | 509 kts | 120° |
| 2026-05-04 23:59 | 42.16384 | -83.74180 | 29844 ft | 512 kts | 120° |
| 2026-05-04 23:59 | 42.14764 | -83.69949 | 29249 ft | 501 kts | 120° |
| 2026-05-04 23:59 | 42.13192 | -83.65848 | 28723 ft | 496 kts | 120° |
| 2026-05-05 00:00 | 42.11609 | -83.61723 | 28184 ft | 492 kts | 120° |
| 2026-05-05 00:00 | 42.11078 | -83.60342 | 28009 ft | 491 kts | 120° |
| 2026-05-05 00:00 | 42.08482 | -83.53591 | 27137 ft | 485 kts | 120° |
| 2026-05-05 00:00 | 42.06932 | -83.49568 | 26619 ft | 481 kts | 120° |
| 2026-05-05 00:01 | 42.05395 | -83.45584 | 26110 ft | 477 kts | 120° |
| 2026-05-05 00:01 | 42.03885 | -83.41676 | 25604 ft | 470 kts | 120° |
| 2026-05-05 00:01 | 42.02412 | -83.37857 | 25108 ft | 447 kts | 120° |
| 2026-05-05 00:01 | 42.01085 | -83.34117 | 24588 ft | 439 kts | 113° |
| 2026-05-05 00:02 | 42.00497 | -83.30130 | 24144 ft | 439 kts | 97° |
| 2026-05-05 00:02 | 42.00284 | -83.27397 | 23871 ft | 441 kts | 96° |
| 2026-05-05 00:02 | 41.99910 | -83.21968 | 23255 ft | 438 kts | 96° |
| 2026-05-05 00:02 | 41.99608 | -83.17902 | 22736 ft | 434 kts | 97° |
| 2026-05-05 00:03 | 41.99396 | -83.15232 | 22423 ft | 432 kts | 97° |
| 2026-05-05 00:03 | 41.99079 | -83.11214 | 21957 ft | 429 kts | 97° |
| 2026-05-05 00:03 | 41.98779 | -83.07231 | 21496 ft | 426 kts | 97° |
| 2026-05-05 00:03 | 41.98475 | -83.03272 | 21034 ft | 424 kts | 97° |
| 2026-05-05 00:04 | 41.98163 | -82.99335 | 20584 ft | 420 kts | 97° |
| 2026-05-05 00:04 | 41.97857 | -82.95478 | 20142 ft | 418 kts | 97° |
| 2026-05-05 00:04 | 41.97552 | -82.91595 | 19693 ft | 415 kts | 97° |
| 2026-05-05 00:04 | 41.97246 | -82.87744 | 19246 ft | 412 kts | 97° |
| 2026-05-05 00:05 | 41.96941 | -82.83960 | 18811 ft | 409 kts | 97° |
| 2026-05-05 00:05 | 41.96634 | -82.80156 | 18370 ft | 407 kts | 97° |
| 2026-05-05 00:05 | 41.96184 | -82.76429 | 17901 ft | 402 kts | 105° |
| 2026-05-05 00:05 | 41.95461 | -82.72812 | 17466 ft | 399 kts | 107° |
| 2026-05-05 00:06 | 41.94732 | -82.69280 | 17051 ft | 397 kts | 107° |
| 2026-05-05 00:06 | 41.94026 | -82.65699 | 16627 ft | 394 kts | 106° |
| 2026-05-05 00:06 | 41.93339 | -82.62143 | 16427 ft | 393 kts | 106° |
| 2026-05-05 00:06 | 41.92632 | -82.58581 | 16075 ft | 392 kts | 107° |
| 2026-05-05 00:07 | 41.91921 | -82.55052 | 15662 ft | 389 kts | 107° |
| 2026-05-05 00:07 | 41.91235 | -82.51581 | 15259 ft | 387 kts | 107° |
| 2026-05-05 00:07 | 41.90554 | -82.48100 | 14832 ft | 385 kts | 107° |
| 2026-05-05 00:07 | 41.89869 | -82.44641 | 14420 ft | 382 kts | 107° |
| 2026-05-05 00:08 | 41.89181 | -82.41197 | 14022 ft | 381 kts | 107° |
| 2026-05-05 00:08 | 41.88503 | -82.37773 | 13623 ft | 379 kts | 107° |
| 2026-05-05 00:08 | 41.87832 | -82.34347 | 13193 ft | 377 kts | 107° |
| 2026-05-05 00:08 | 41.87162 | -82.30947 | 12782 ft | 374 kts | 107° |
| 2026-05-05 00:09 | 41.86493 | -82.27581 | 12379 ft | 372 kts | 107° |
| 2026-05-05 00:09 | 41.85826 | -82.24227 | 11973 ft | 371 kts | 107° |
| 2026-05-05 00:09 | 41.85060 | -82.20958 | 11534 ft | 365 kts | 117° |
| 2026-05-05 00:09 | 41.83807 | -82.18081 | 11179 ft | 360 kts | 126° |
| 2026-05-05 00:10 | 41.82462 | -82.15244 | 10824 ft | 359 kts | 126° |
| 2026-05-05 00:10 | 41.81162 | -82.12416 | 10440 ft | 349 kts | 125° |
| 2026-05-05 00:10 | 41.79949 | -82.09701 | 10069 ft | 330 kts | 125° |
| 2026-05-05 00:10 | 41.78770 | -82.07113 | 9720 ft | 320 kts | 126° |
| 2026-05-05 00:11 | 41.77617 | -82.04627 | 9365 ft | 317 kts | 127° |
| 2026-05-05 00:11 | 41.76464 | -82.02121 | 9022 ft | 314 kts | 126° |
| 2026-05-05 00:11 | 41.75323 | -81.99623 | 8692 ft | 312 kts | 126° |
| 2026-05-05 00:11 | 41.74186 | -81.97143 | 8357 ft | 310 kts | 127° |
| 2026-05-05 00:12 | 41.73067 | -81.94713 | 8031 ft | 308 kts | 127° |
| 2026-05-05 00:12 | 41.71946 | -81.92277 | 7697 ft | 306 kts | 127° |
| 2026-05-05 00:12 | 41.70823 | -81.89857 | 7374 ft | 304 kts | 128° |
| 2026-05-05 00:12 | 41.69692 | -81.87514 | 7053 ft | 302 kts | 129° |
| 2026-05-05 00:13 | 41.68553 | -81.85158 | 6726 ft | 300 kts | 129° |
| 2026-05-05 00:13 | 41.67452 | -81.82788 | 6405 ft | 298 kts | 128° |
| 2026-05-05 00:13 | 41.66388 | -81.80454 | 6081 ft | 296 kts | 128° |
| 2026-05-05 00:13 | 41.65308 | -81.78132 | 5754 ft | 286 kts | 129° |
| 2026-05-05 00:14 | 41.64262 | -81.75943 | 5445 ft | 273 kts | 130° |
| 2026-05-05 00:14 | 41.63295 | -81.73813 | 5124 ft | 265 kts | 123° |
| 2026-05-05 00:14 | 41.63015 | -81.71365 | 4690 ft | 272 kts | 85° |
| 2026-05-05 00:14 | 41.63750 | -81.69101 | 4644 ft | 260 kts | 62° |
| 2026-05-05 00:15 | 41.64063 | -81.66706 | 4653 ft | 280 kts | 101° |
| 2026-05-05 00:15 | 41.63337 | -81.64464 | 4624 ft | 244 kts | 138° |
| 2026-05-05 00:15 | 41.62010 | -81.63319 | 4338 ft | 218 kts | 168° |
| 2026-05-05 00:15 | 41.60592 | -81.62682 | 4282 ft | 214 kts | 172° |
| 2026-05-05 00:16 | 41.59175 | -81.62058 | 4206 ft | 214 kts | 172° |
| 2026-05-05 00:16 | 41.57688 | -81.61475 | 4105 ft | 239 kts | 178° |
| 2026-05-05 00:16 | 41.56131 | -81.61841 | 3860 ft | 212 kts | 212° |
| 2026-05-05 00:16 | 41.55209 | -81.63110 | 3671 ft | 176 kts | 233° |
| 2026-05-05 00:17 | 41.54486 | -81.64287 | 3525 ft | 152 kts | 231° |
| 2026-05-05 00:17 | 41.53823 | -81.65338 | 3384 ft | 145 kts | 231° |
| 2026-05-05 00:17 | 41.53185 | -81.66352 | 3241 ft | 143 kts | 231° |
| 2026-05-05 00:17 | 41.52546 | -81.67367 | 3108 ft | 142 kts | 231° |
| 2026-05-05 00:18 | 41.51913 | -81.68373 | 2995 ft | 141 kts | 231° |
| 2026-05-05 00:18 | 41.51299 | -81.69348 | 2987 ft | 140 kts | 231° |
| 2026-05-05 00:18 | 41.50674 | -81.70349 | 2989 ft | 141 kts | 231° |
| 2026-05-05 00:18 | 41.50046 | -81.71347 | 2988 ft | 140 kts | 230° |
| 2026-05-05 00:19 | 41.49502 | -81.72212 | 2971 ft | 103 kts | 230° |
| 2026-05-05 00:19 | 41.49095 | -81.72864 | 2969 ft | 87 kts | 230° |
| 2026-05-05 00:19 | 41.48697 | -81.73495 | 2899 ft | 91 kts | 230° |
| 2026-05-05 00:19 | 41.48288 | -81.74146 | 2781 ft | 92 kts | 230° |
| 2026-05-05 00:20 | 41.47865 | -81.74823 | 2664 ft | 97 kts | 230° |
| 2026-05-05 00:20 | 41.47434 | -81.75519 | 2524 ft | 99 kts | 230° |
| 2026-05-05 00:20 | 41.46996 | -81.76224 | 2408 ft | 99 kts | 230° |
| 2026-05-05 00:20 | 41.46565 | -81.76928 | 2278 ft | 97 kts | 230° |
| 2026-05-05 00:21 | 41.46126 | -81.77610 | 2150 ft | 97 kts | 228° |
| 2026-05-05 00:21 | 41.45691 | -81.78303 | 2011 ft | 97 kts | 227° |
| 2026-05-05 00:21 | 41.45268 | -81.78982 | 1879 ft | 96 kts | 225° |
| 2026-05-05 00:21 | 41.44829 | -81.79660 | 1753 ft | 97 kts | 227° |
| 2026-05-05 00:22 | 41.44384 | -81.80367 | 1660 ft | 101 kts | 227° |
| 2026-05-05 00:22 | 41.43926 | -81.81101 | 1525 ft | 104 kts | 228° |
| 2026-05-05 00:22 | 41.43449 | -81.81870 | 1381 ft | 109 kts | 226° |
| 2026-05-05 00:22 | 41.42976 | -81.82613 | 1253 ft | 104 kts | 222° |
| 2026-05-05 00:23 | 41.42480 | -81.83389 | 1090 ft | 111 kts | 225° |
| 2026-05-05 00:23 | 41.42004 | -81.84153 | 949 ft | 106 kts | 225° |
| 2026-05-05 00:23 | 41.41524 | -81.84921 | 816 ft | 108 kts | 226° |
| 2026-05-05 00:23 | 41.41085 | -81.85612 | 786 ft | 83 kts | 230° |
| 2026-05-05 00:24 | 41.40845 | -81.85995 | 787 ft | 35 kts | 230° |
| 2026-05-05 00:24 | 41.40725 | -81.86184 | 788 ft | 16 kts | 227° |
| 2026-05-05 00:24 | 41.40660 | -81.86240 | 785 ft | 10 kts | 202° |
| 2026-05-05 00:24 | 41.40592 | -81.86259 | 785 ft | 10 kts | 182° |
| 2026-05-05 00:25 | 41.40539 | -81.86222 | 785 ft | 9 kts | 140° |
| 2026-05-05 00:25 | 41.40492 | -81.86169 | 785 ft | 9 kts | 139° |
| 2026-05-05 00:25 | 41.40444 | -81.86116 | 785 ft | 10 kts | 140° |
| 2026-05-05 00:25 | 41.40379 | -81.86044 | 784 ft | 14 kts | 140° |
| 2026-05-05 00:26 | 41.40319 | -81.85977 | 785 ft | 0 kts | 140° |
| 2026-05-05 00:26 | 41.40315 | -81.85973 | 785 ft | 3 kts | 140° |
| 2026-05-05 00:27 | 41.40302 | -81.85935 | 785 ft | 6 kts | 89° |
| 2026-05-05 00:27 | 41.40323 | -81.85890 | 785 ft | 6 kts | 50° |
| 2026-05-05 00:27 | 41.40350 | -81.85847 | 785 ft | 6 kts | 50° |
| 2026-05-05 00:27 | 41.40378 | -81.85803 | 785 ft | 6 kts | 50° |
| 2026-05-05 00:28 | 41.40405 | -81.85760 | 785 ft | 6 kts | 49° |
| 2026-05-05 00:28 | 41.40433 | -81.85715 | 785 ft | 7 kts | 50° |
| 2026-05-05 00:28 | 41.40469 | -81.85659 | 783 ft | 9 kts | 50° |
| 2026-05-05 00:28 | 41.40515 | -81.85587 | 783 ft | 11 kts | 50° |
| 2026-05-05 00:29 | 41.40563 | -81.85509 | 783 ft | 11 kts | 50° |
| 2026-05-05 00:29 | 41.40585 | -81.85469 | 783 ft | 4 kts | 99° |
| 2026-05-05 00:29 | 41.40538 | -81.85493 | 783 ft | 6 kts | 237° |
| 2026-05-05 00:29 | 41.40504 | -81.85503 | 783 ft | 6 kts | 164° |
| 2026-05-05 00:30 | 41.40456 | -81.85483 | 783 ft | 7 kts | 162° |
| 2026-05-05 00:30 | 41.40408 | -81.85462 | 783 ft | 7 kts | 161° |
| 2026-05-05 00:30 | 41.40360 | -81.85441 | 783 ft | 7 kts | 161° |
| 2026-05-05 00:30 | 41.40324 | -81.85424 | 783 ft | 4 kts | 156° |
| 2026-05-05 00:31 | 41.40310 | -81.85401 | 783 ft | 3 kts | 105° |
| 2026-05-05 00:31 | 41.40301 | -81.85376 | 783 ft | 3 kts | 132° |
| 2026-05-05 00:31 | 41.40284 | -81.85369 | 782 ft | 2 kts | 174° |
| 2026-05-05 00:31 | 41.40267 | -81.85369 | 781 ft | 2 kts | 181° |
| 2026-05-05 00:32 | 41.40250 | -81.85370 | 781 ft | 3 kts | 181° |
| 2026-05-05 00:32 | 41.40233 | -81.85372 | 781 ft | 2 kts | 195° |
| 2026-05-05 00:32 | 41.40227 | -81.85383 | 781 ft | 1 kts | 247° |
| 2026-05-05 00:32 | 41.40227 | -81.85388 | 781 ft | 0 kts | 271° |
| 2026-05-05 00:33 | 41.40227 | -81.85395 | 781 ft | 1 kts | 272° |
| 2026-05-05 00:33 | 41.40228 | -81.85408 | 781 ft | 1 kts | 272° |
| 2026-05-05 00:33 | 41.40228 | -81.85409 | 781 ft | 0 kts | 272° |